Time;durP1;ratioP1;P1;durP2;ratioP2;P2;SDS_P1;SDS_P2;PMS_P1;PMS_P2;Temp;Humidity;BMP_temperature;BMP_pressure;BME280_temperature;BME280_humidity;BME280_pressure;Samples;Min_cycle;Max_cycle;Signal;HPM_P1;HPM_P2
2023/10/14 00:07:53;;;;;;;10.70;5.78;;;;;;;16.72;68.63;98895.06;21076561;28;20256;-81
2023/10/14 00:17:57;;;;;;;10.52;6.45;;;;;;;16.63;68.98;98886.94;21047366;28;20223;-81
2023/10/14 00:28:02;;;;;;;13.50;7.10;;;;;;;15.86;75.87;98899.72;21079271;28;20495;-82
2023/10/14 00:38:08;;;;;;;10.07;5.57;;;;;;;15.76;74.98;98921.16;21084903;28;20237;-78
2023/10/14 00:48:19;;;;;;;11.75;5.47;;;;;;;15.74;76.40;98934.91;21079231;28;20205;-78
2023/10/14 00:58:23;;;;;;;12.20;5.68;;;;;;;15.31;79.49;98964.22;21053595;28;20317;-81
2023/10/14 01:08:29;;;;;;;13.38;6.05;;;;;;;14.85;84.36;98963.81;21075413;28;20195;-80
2023/10/14 01:18:34;;;;;;;9.40;4.50;;;;;;;14.56;83.33;98996.69;21069681;28;20273;-85
2023/10/14 01:28:43;;;;;;;6.85;4.82;;;;;;;15.05;82.32;98985.09;21081542;28;20278;-83
2023/10/14 01:38:57;;;;;;;2.70;1.63;;;;;;;12.89;85.29;99082.66;21051707;28;20565;-88
2023/10/14 01:49:08;;;;;;;0.38;0.28;;;;;;;12.80;82.17;99113.16;21073982;28;20223;-81
2023/10/14 01:59:10;;;;;;;0.93;0.50;;;;;;;12.44;81.34;99162.38;21072234;28;20674;-83
2023/10/14 02:09:16;;;;;;;0.50;0.10;;;;;;;13.06;79.04;99168.09;21036520;28;20199;-83
2023/10/14 02:19:18;;;;;;;0.00;0.00;;;;;;;12.58;80.85;99198.59;21043022;28;20223;-85
2023/10/14 02:29:24;;;;;;;1.83;0.17;;;;;;;12.84;77.93;99212.03;21047177;28;20226;-83
2023/10/14 02:39:27;;;;;;;0.85;0.55;;;;;;;12.77;77.82;99212.69;21054343;28;20214;-86
2023/10/14 02:49:35;;;;;;;0.10;0.10;;;;;;;13.05;77.67;99251.19;21066296;28;20274;-82
2023/10/14 02:59:43;;;;;;;0.40;0.10;;;;;;;13.15;77.09;99267.53;21034987;28;20321;-85
2023/10/14 03:09:46;;;;;;;0.17;0.15;;;;;;;12.68;78.86;99299.59;21062966;28;20213;-85
2023/10/14 03:19:52;;;;;;;0.82;0.60;;;;;;;12.65;81.24;99345.50;21043040;28;20237;-85
2023/10/14 03:29:58;;;;;;;4.27;0.40;;;;;;;11.17;80.92;99399.41;21046192;28;20207;-83
2023/10/14 03:50:16;;;;;;;3.47;0.52;;;;;;;10.85;79.22;99466.78;21064414;28;20210;-83
2023/10/14 04:00:36;;;;;;;3.15;0.32;;;;;;;10.94;79.30;99508.88;21048069;28;20218;-80
2023/10/14 04:10:46;;;;;;;7.47;0.40;;;;;;;11.28;78.55;99518.84;21058138;28;20483;-82
2023/10/14 04:20:58;;;;;;;7.13;1.57;;;;;;;11.41;77.15;99545.00;21054453;28;20219;-84
2023/10/14 04:31:06;;;;;;;3.08;0.77;;;;;;;11.59;74.80;99574.59;21032311;28;20591;-84
2023/10/14 04:41:13;;;;;;;1.90;0.55;;;;;;;11.74;74.54;99598.41;21053741;28;20223;-86
2023/10/14 04:51:18;;;;;;;3.97;0.77;;;;;;;11.55;74.64;99627.16;21068455;28;20218;-80
2023/10/14 05:01:24;;;;;;;5.20;1.30;;;;;;;11.25;76.52;99654.72;21058172;28;20229;-81
2023/10/14 05:11:31;;;;;;;5.60;1.17;;;;;;;11.45;73.08;99679.16;21066986;28;20205;-83
2023/10/14 05:21:42;;;;;;;3.43;1.10;;;;;;;11.14;75.34;99704.22;21064763;28;20199;-82
2023/10/14 05:31:46;;;;;;;8.47;1.00;;;;;;;11.20;75.86;99719.72;21051812;28;20198;-86
2023/10/14 05:41:48;;;;;;;4.27;1.17;;;;;;;11.07;75.58;99744.22;21075832;28;20240;-86
2023/10/14 05:51:52;;;;;;;4.15;0.88;;;;;;;10.85;74.76;99759.50;21066177;28;20344;-87
2023/10/14 06:01:53;;;;;;;7.53;1.27;;;;;;;10.50;75.59;99795.50;21047300;28;20238;-86
2023/10/14 06:11:56;;;;;;;5.80;1.40;;;;;;;10.68;74.18;99810.28;21070594;28;20300;-84
2023/10/14 06:21:59;;;;;;;8.17;1.40;;;;;;;10.55;74.84;99830.22;21040702;28;20198;-87
2023/10/14 06:32:03;;;;;;;5.53;1.40;;;;;;;10.85;72.16;99848.75;21060019;28;20283;-84
2023/10/14 06:42:05;;;;;;;6.97;1.50;;;;;;;10.99;71.63;99868.19;21072278;28;20241;-86
2023/10/14 06:52:11;;;;;;;8.00;1.80;;;;;;;10.92;72.45;99887.59;21048843;28;20711;-86
2023/10/14 07:02:13;;;;;;;9.03;1.97;;;;;;;11.03;72.03;99912.22;21085151;28;20218;-81
2023/10/14 07:12:18;;;;;;;9.00;1.47;;;;;;;11.03;73.52;99923.47;21085880;28;20534;-88
2023/10/14 07:22:20;;;;;;;9.63;1.40;;;;;;;10.83;72.82;99941.97;21076640;28;20205;-87
2023/10/14 07:32:23;;;;;;;6.70;1.48;;;;;;;11.15;69.89;99953.69;21072420;28;20229;-82
2023/10/14 07:42:25;;;;;;;11.60;1.45;;;;;;;10.98;71.69;99973.50;21064225;28;20195;-82
2023/10/14 07:52:29;;;;;;;7.47;1.40;;;;;;;11.03;71.84;99984.59;21069186;28;20684;-80
2023/10/14 08:02:31;;;;;;;6.70;1.57;;;;;;;11.37;70.32;99998.44;21066538;28;20199;-80
2023/10/14 08:12:34;;;;;;;8.18;1.50;;;;;;;11.56;69.64;100004.41;21068983;28;20218;-86
2023/10/14 08:22:35;;;;;;;7.30;1.23;;;;;;;11.12;68.41;100028.41;21084575;28;20768;-80
2023/10/14 08:32:40;;;;;;;7.30;1.60;;;;;;;11.28;66.97;100042.75;21090560;28;20567;-80
2023/10/14 08:42:42;;;;;;;12.43;2.27;;;;;;;11.37;67.18;100046.31;21068127;28;20494;-87
2023/10/14 08:52:46;;;;;;;13.32;2.00;;;;;;;11.38;65.74;100056.44;21091051;28;20233;-82
2023/10/14 09:02:49;;;;;;;13.23;2.10;;;;;;;11.14;64.08;100064.69;21063952;28;20211;-80
2023/10/14 09:13:03;;;;;;;11.97;2.30;;;;;;;11.23;62.69;100092.78;21064864;28;20230;-81
2023/10/14 09:23:14;;;;;;;9.90;2.07;;;;;;;12.27;59.20;100086.09;21085791;28;20224;-87
2023/10/14 09:33:19;;;;;;;8.05;2.15;;;;;;;12.12;59.08;100098.00;21072071;28;20218;-85
2023/10/14 09:43:24;;;;;;;9.70;1.85;;;;;;;11.81;58.11;100111.72;21030296;28;20191;-82
2023/10/14 09:53:28;;;;;;;8.13;1.70;;;;;;;11.66;57.98;100120.75;21060680;28;20647;-81
2023/10/14 10:03:34;;;;;;;13.27;1.77;;;;;;;11.61;57.15;100135.03;21047757;28;20198;-82
2023/10/14 10:13:37;;;;;;;12.93;1.37;;;;;;;11.45;54.02;100149.69;21073509;28;20798;-87
2023/10/14 10:23:39;;;;;;;11.60;1.57;;;;;;;11.05;54.16;100160.44;21061068;28;20198;-86
2023/10/14 10:34:03;;;;;;;8.10;1.80;;;;;;;12.17;53.95;100171.16;21094532;28;20634;-81
2023/10/14 10:44:08;;;;;;;10.32;1.95;;;;;;;12.27;52.07;100175.53;21047516;28;20386;-82
2023/10/14 10:54:14;;;;;;;9.13;1.47;;;;;;;13.23;52.95;100170.63;21061991;28;20634;-85
2023/10/14 11:04:19;;;;;;;13.30;2.00;;;;;;;12.09;51.99;100180.47;21075009;28;20218;-80
2023/10/14 11:14:22;;;;;;;5.50;0.90;;;;;;;12.20;51.53;100178.09;21028754;28;20242;-84
2023/10/14 11:24:26;;;;;;;8.85;1.85;;;;;;;12.81;50.35;100167.13;21035895;28;20198;-90
2023/10/14 11:34:35;;;;;;;12.43;1.60;;;;;;;13.11;47.44;100160.13;21045864;28;20215;-82
2023/10/14 11:44:37;;;;;;;12.43;1.60;;;;;;;13.15;46.53;100165.88;21055972;28;20207;-82
2023/10/14 11:54:41;;;;;;;4.40;1.20;;;;;;;13.12;45.00;100172.28;21052273;28;20226;-86
2023/10/14 12:04:43;;;;;;;7.95;1.40;;;;;;;12.55;47.33;100173.00;21048163;28;20210;-82
2023/10/14 12:14:47;;;;;;;6.82;1.48;;;;;;;13.61;44.54;100168.34;21062224;28;20636;-81
2023/10/14 12:24:49;;;;;;;4.85;1.40;;;;;;;13.15;44.41;100166.72;21072550;28;20277;-81
2023/10/14 12:34:52;;;;;;;3.22;0.57;;;;;;;12.53;44.36;100178.19;21068437;28;20313;-82
2023/10/14 12:44:54;;;;;;;5.95;0.80;;;;;;;13.48;42.91;100183.66;21049361;28;20208;-81
2023/10/14 12:54:57;;;;;;;5.13;0.85;;;;;;;13.59;41.99;100190.47;21061748;28;20510;-82
2023/10/14 13:05:00;;;;;;;5.55;1.55;;;;;;;13.33;41.32;100195.59;21081501;28;20206;-82
2023/10/14 13:15:05;;;;;;;2.92;0.70;;;;;;;12.34;41.60;100204.06;21062563;28;20301;-82
2023/10/14 13:25:07;;;;;;;8.68;0.80;;;;;;;12.82;41.32;100209.13;21063392;28;20199;-81
2023/10/14 13:35:15;;;;;;;5.55;0.70;;;;;;;12.72;38.50;100215.22;21081387;28;20233;-87
2023/10/14 13:45:19;;;;;;;6.13;0.90;;;;;;;12.68;37.42;100208.59;21075275;28;20359;-80
2023/10/14 13:55:22;;;;;;;4.82;0.63;;;;;;;12.33;38.68;100218.50;21082016;28;20218;-81
2023/10/14 14:05:24;;;;;;;5.22;0.85;;;;;;;11.83;38.84;100234.22;21057199;28;20476;-81
2023/10/14 14:15:27;;;;;;;6.03;1.00;;;;;;;12.88;39.05;100243.59;21052894;28;20210;-81
2023/10/14 14:25:30;;;;;;;3.95;0.90;;;;;;;11.98;40.60;100263.84;21058956;28;20500;-82
2023/10/14 14:35:33;;;;;;;4.80;0.70;;;;;;;12.10;39.56;100258.28;21062343;28;20235;-81
2023/10/14 14:45:36;;;;;;;6.97;0.90;;;;;;;12.48;41.78;100268.66;21056872;28;20213;-81
2023/10/14 14:55:42;;;;;;;4.67;1.10;;;;;;;11.61;41.86;100293.69;21057018;28;20230;-80
2023/10/14 15:05:45;;;;;;;4.10;0.83;;;;;;;11.96;43.75;100305.66;21056800;28;20550;-80
2023/10/14 15:15:49;;;;;;;5.28;1.38;;;;;;;12.36;46.97;100308.09;21051294;28;20248;-81
2023/10/14 15:25:51;;;;;;;7.47;1.27;;;;;;;11.65;43.60;100319.22;21040924;28;20279;-81
2023/10/14 15:36:04;;;;;;;3.95;0.68;;;;;;;11.18;48.08;100339.66;21049948;28;20223;-82
2023/10/14 15:46:08;;;;;;;7.10;0.90;;;;;;;11.18;50.48;100361.38;21057426;28;20198;-85
2023/10/14 15:56:16;;;;;;;5.25;0.88;;;;;;;10.95;49.65;100365.53;21043934;28;20317;-80
2023/10/14 16:06:18;;;;;;;2.42;0.70;;;;;;;11.08;50.01;100376.63;21051981;28;20529;-81
2023/10/14 16:16:21;;;;;;;4.90;0.60;;;;;;;10.54;50.47;100406.16;21058845;28;20215;-81
2023/10/14 16:26:23;;;;;;;1.63;0.50;;;;;;;11.09;51.81;100408.44;21044655;28;20194;-81
2023/10/14 16:36:29;;;;;;;4.50;0.90;;;;;;;11.23;50.39;100417.56;21039516;28;20693;-81
2023/10/14 16:46:33;;;;;;;4.73;0.93;;;;;;;9.67;57.62;100449.91;21076081;28;20617;-85
2023/10/14 16:56:38;;;;;;;3.47;0.50;;;;;;;8.04;65.89;100505.06;21081176;28;20234;-82
2023/10/14 17:06:40;;;;;;;4.90;1.57;;;;;;;8.59;64.74;100494.75;21065017;28;20322;-79
2023/10/14 17:16:43;;;;;;;3.03;0.90;;;;;;;8.89;62.74;100503.69;21065716;28;20230;-79
2023/10/14 17:26:46;;;;;;;5.57;0.90;;;;;;;8.76;68.97;100510.97;21076935;28;20189;-80
2023/10/14 17:36:49;;;;;;;2.00;0.57;;;;;;;8.82;66.55;100522.94;21055072;28;20623;-79
2023/10/14 17:46:50;;;;;;;4.73;0.77;;;;;;;8.82;66.23;100545.38;21048541;28;20199;-80
2023/10/14 17:56:54;;;;;;;3.90;0.80;;;;;;;9.00;66.05;100558.44;21062296;28;20222;-81
2023/10/14 18:06:55;;;;;;;5.80;0.90;;;;;;;9.21;65.09;100570.94;21069284;28;20240;-81
2023/10/14 18:17:00;;;;;;;6.10;0.80;;;;;;;9.08;64.90;100574.59;21072502;28;20693;-80
2023/10/14 18:27:01;;;;;;;6.63;1.20;;;;;;;8.67;66.16;100580.19;21072709;28;20263;-81
2023/10/14 18:37:06;;;;;;;6.53;1.17;;;;;;;8.83;65.55;100586.34;21062970;28;20219;-81
2023/10/14 18:47:07;;;;;;;8.50;1.17;;;;;;;8.48;65.82;100602.66;21057783;28;20198;-80
2023/10/14 18:57:12;;;;;;;5.97;1.70;;;;;;;8.72;64.92;100608.94;21052080;28;20264;-81
2023/10/14 19:07:14;;;;;;;7.67;2.03;;;;;;;8.42;65.36;100609.50;21065922;28;20202;-81
2023/10/14 19:17:17;;;;;;;10.67;1.60;;;;;;;8.62;64.21;100620.38;21052924;28;20219;-84
2023/10/14 19:27:19;;;;;;;6.10;1.53;;;;;;;8.48;65.06;100633.50;21058764;28;20650;-80
2023/10/14 19:37:22;;;;;;;6.67;1.50;;;;;;;8.28;65.22;100639.47;21071221;28;20252;-81
2023/10/14 19:47:24;;;;;;;8.30;1.97;;;;;;;8.47;63.98;100633.81;21057057;28;21366;-81
2023/10/14 19:57:28;;;;;;;9.97;2.20;;;;;;;8.94;62.50;100639.13;21052777;28;20316;-80
2023/10/14 20:07:29;;;;;;;5.87;1.47;;;;;;;8.46;62.87;100644.19;21053771;28;20187;-88
2023/10/14 20:17:34;;;;;;;3.40;1.10;;;;;;;8.56;62.71;100660.06;21064464;28;20214;-81
2023/10/14 20:27:37;;;;;;;7.37;2.23;;;;;;;8.35;60.93;100656.72;21096426;28;20206;-81
2023/10/14 20:37:42;;;;;;;4.73;1.13;;;;;;;8.06;61.50;100670.13;21080874;28;20308;-81
2023/10/14 20:47:44;;;;;;;7.23;1.27;;;;;;;8.47;60.81;100665.50;21084538;28;20202;-81
2023/10/14 20:57:48;;;;;;;5.93;1.63;;;;;;;8.04;61.20;100673.22;21077312;28;20230;-81
2023/10/14 21:07:50;;;;;;;7.23;1.63;;;;;;;8.29;61.31;100691.59;21061963;28;20544;-81
2023/10/14 21:17:54;;;;;;;6.23;1.47;;;;;;;7.96;60.45;100702.75;21088348;28;20218;-81
2023/10/14 21:27:56;;;;;;;9.07;1.83;;;;;;;8.37;59.86;100699.31;21059432;28;20191;-81
2023/10/14 21:38:00;;;;;;;9.23;1.60;;;;;;;7.95;61.15;100701.06;21056629;28;20215;-81
2023/10/14 21:48:02;;;;;;;4.77;1.10;;;;;;;8.08;61.06;100695.84;21072442;28;20297;-81
2023/10/14 21:58:07;;;;;;;12.27;1.40;;;;;;;8.19;60.97;100689.78;21059998;28;20260;-81
2023/10/14 22:08:10;;;;;;;10.40;1.77;;;;;;;7.85;61.29;100689.19;21078802;28;20199;-81
2023/10/14 22:18:13;;;;;;;3.93;1.17;;;;;;;7.75;60.27;100683.72;21077760;28;20248;-82
2023/10/14 22:28:15;;;;;;;6.30;1.30;;;;;;;7.98;60.14;100688.44;21065428;28;20586;-80
2023/10/14 22:38:18;;;;;;;3.37;0.90;;;;;;;8.14;61.59;100680.63;21066742;28;20647;-81
2023/10/14 22:48:20;;;;;;;7.53;1.50;;;;;;;7.75;62.96;100680.94;21071508;28;20217;-79
2023/10/14 22:58:23;;;;;;;8.40;2.03;;;;;;;7.52;61.66;100680.69;21064921;28;20218;-82
2023/10/14 23:08:24;;;;;;;7.67;1.43;;;;;;;7.47;62.39;100685.50;21049122;28;20198;-81
2023/10/14 23:18:28;;;;;;;5.80;1.60;;;;;;;7.37;62.50;100689.25;21057411;28;20362;-80
2023/10/14 23:28:29;;;;;;;3.60;1.10;;;;;;;7.10;63.49;100678.63;21061695;28;20217;-80
2023/10/14 23:38:37;;;;;;;6.63;1.57;;;;;;;6.95;64.37;100693.63;21039865;28;20250;-80
2023/10/14 23:48:39;;;;;;;5.53;1.40;;;;;;;6.94;65.76;100683.56;21055707;28;20302;-80
2023/10/14 23:58:42;;;;;;;7.53;1.63;;;;;;;7.37;65.05;100678.03;21081500;28;20226;-82
